createdAt,value
2023-05-01T00:01:50.856Z,3.80
2023-05-01T00:04:53.207Z,3.37
2023-05-01T00:07:55.549Z,4.00
2023-05-01T00:10:57.777Z,3.73
2023-05-01T00:14:00.073Z,3.77
2023-05-01T00:17:02.454Z,4.30
2023-05-01T00:20:05.530Z,4.00
2023-05-01T00:23:08.826Z,4.07
2023-05-01T00:26:11.010Z,4.27
2023-05-01T00:29:12.950Z,3.73
2023-05-01T00:32:15.612Z,3.97
2023-05-01T00:35:18.124Z,4.27
2023-05-01T00:38:19.994Z,3.63
2023-05-01T00:41:21.938Z,3.97
2023-05-01T00:44:24.188Z,3.97
2023-05-01T00:47:26.110Z,4.00
2023-05-01T00:50:28.909Z,3.83
2023-05-01T00:53:31.460Z,3.60
2023-05-01T00:56:33.494Z,3.50
2023-05-01T00:59:37.355Z,3.70
2023-05-01T01:02:39.631Z,3.70
2023-05-01T01:05:45.942Z,4.13
2023-05-01T01:08:57.947Z,3.70
2023-05-01T01:12:11.861Z,3.30
2023-05-01T01:15:24.312Z,3.43
2023-05-01T01:19:01.496Z,3.63
2023-05-01T01:22:17.754Z,3.90
2023-05-01T01:25:44.773Z,3.90
2023-05-01T01:29:14.315Z,3.90
2023-05-01T01:32:46.900Z,3.27
2023-05-01T01:35:55.702Z,3.20
2023-05-01T01:39:22.167Z,3.70
2023-05-01T01:42:27.663Z,3.30
2023-05-01T01:45:43.974Z,4.00
2023-05-01T01:48:47.914Z,4.13
2023-05-01T01:51:51.730Z,3.70
2023-05-01T01:54:59.053Z,3.90
2023-05-01T01:58:03.378Z,3.70
2023-05-01T02:01:06.592Z,3.97
2023-05-01T02:04:09.431Z,4.43
2023-05-01T02:07:13.063Z,4.10
2023-05-01T02:10:16.531Z,4.57
2023-05-01T02:13:19.051Z,4.13
2023-05-01T02:16:26.022Z,3.50
2023-05-01T02:19:28.409Z,3.80
2023-05-01T02:22:31.621Z,3.50
2023-05-01T02:25:35.730Z,3.90
2023-05-01T02:28:42.005Z,4.00
2023-05-01T02:31:43.979Z,3.57
2023-05-01T02:34:46.116Z,4.03
2023-05-01T02:37:48.094Z,3.80
2023-05-01T02:40:53.225Z,3.57
2023-05-01T02:44:02.010Z,4.27
2023-05-01T02:47:04.757Z,3.83
2023-05-01T02:50:08.373Z,3.63
2023-05-01T02:53:12.713Z,3.90
2023-05-01T02:56:14.891Z,4.07
2023-05-01T02:59:17.888Z,4.60
2023-05-01T03:02:19.775Z,3.70
2023-05-01T03:05:21.661Z,3.70
2023-05-01T03:08:23.695Z,4.00
2023-05-01T03:11:25.784Z,3.13
2023-05-01T03:14:29.159Z,3.57
2023-05-01T03:17:31.342Z,3.73
2023-05-01T03:20:33.336Z,4.10
2023-05-01T03:23:35.272Z,4.50
2023-05-01T03:26:37.254Z,4.23
2023-05-01T03:29:39.241Z,4.70
2023-05-01T03:32:41.330Z,4.13
2023-05-01T03:35:43.740Z,3.80
2023-05-01T03:38:47.566Z,3.67
2023-05-01T03:41:49.529Z,3.30
2023-05-01T03:44:51.442Z,3.30
2023-05-01T03:47:53.677Z,3.57
2023-05-01T03:50:55.580Z,3.40
2023-05-01T03:53:59.000Z,3.63
2023-05-01T03:57:01.222Z,3.60
2023-05-01T04:00:05.487Z,3.60
2023-05-01T04:03:07.969Z,2.97
2023-05-01T04:06:10.461Z,3.40
2023-05-01T04:09:12.672Z,3.33
2023-05-01T04:12:14.681Z,3.30
2023-05-01T04:15:16.708Z,3.57
2023-05-01T04:18:18.697Z,3.47
2023-05-01T04:21:20.626Z,3.23
2023-05-01T04:24:22.778Z,3.20
2023-05-01T04:27:25.482Z,3.50
2023-05-01T04:30:27.405Z,3.03
2023-05-01T04:33:29.386Z,3.93
2023-05-01T04:36:33.166Z,3.27
2023-05-01T04:39:35.252Z,3.33
2023-05-01T04:42:37.463Z,2.97
2023-05-01T04:45:39.379Z,3.20
2023-05-01T04:48:41.342Z,2.80
2023-05-01T04:51:43.429Z,2.80
2023-05-01T04:54:45.329Z,2.83
2023-05-01T04:57:47.239Z,2.80
2023-05-01T05:00:49.736Z,2.80
2023-05-01T05:03:51.857Z,2.80
2023-05-01T05:06:54.353Z,2.73
2023-05-01T05:09:56.879Z,2.43
2023-05-01T05:12:59.846Z,2.77
2023-05-01T05:16:01.906Z,2.80
2023-05-01T05:19:04.104Z,2.80
2023-05-01T05:22:06.037Z,2.60
2023-05-01T05:25:08.419Z,3.23
2023-05-01T05:28:10.428Z,3.70
2023-05-01T05:31:13.010Z,2.30
2023-05-01T05:34:14.955Z,2.27
2023-05-01T05:37:17.217Z,2.57
2023-05-01T05:40:19.908Z,2.47
2023-05-01T05:43:21.883Z,2.60
2023-05-01T05:46:23.979Z,2.53
2023-05-01T05:49:25.962Z,2.50
2023-05-01T05:52:28.229Z,2.23
2023-05-01T05:55:30.947Z,2.50
2023-05-01T05:58:32.811Z,2.20
2023-05-01T06:01:34.754Z,2.30
2023-05-01T06:04:36.661Z,2.40
2023-05-01T06:07:39.259Z,2.57
2023-05-01T06:10:44.247Z,2.40
2023-05-01T06:13:46.989Z,2.60
2023-05-01T06:16:48.881Z,2.20
2023-05-01T06:19:52.592Z,2.80
2023-05-01T06:22:54.949Z,2.20
2023-05-01T06:25:56.869Z,2.40
2023-05-01T06:28:58.828Z,2.80
2023-05-01T06:32:00.865Z,2.77
2023-05-01T06:35:02.866Z,2.47
2023-05-01T06:38:06.636Z,2.53
2023-05-01T06:41:10.192Z,2.53
2023-05-01T06:44:12.752Z,2.77
2023-05-01T06:47:14.774Z,3.07
2023-05-01T06:50:16.795Z,3.53
2023-05-01T06:53:18.886Z,3.63
2023-05-01T06:56:21.800Z,3.23
2023-05-01T06:59:23.917Z,3.20
2023-05-01T07:02:26.305Z,3.10
2023-05-01T07:05:28.414Z,2.73
2023-05-01T07:08:30.990Z,2.90
2023-05-01T07:11:33.273Z,3.37
2023-05-01T07:14:36.114Z,3.60
2023-05-01T07:17:38.163Z,3.63
2023-05-01T07:20:40.519Z,3.00
2023-05-01T07:23:42.766Z,3.07
2023-05-01T07:26:44.593Z,2.90
2023-05-01T07:29:46.739Z,2.70
2023-05-01T07:32:48.680Z,3.30
2023-05-01T07:35:52.248Z,3.13
2023-05-01T07:38:54.210Z,3.03
2023-05-01T07:41:58.337Z,2.97
2023-05-01T07:45:00.308Z,3.07
2023-05-01T07:48:02.502Z,2.77
2023-05-01T07:51:04.868Z,3.33
2023-05-01T07:54:06.632Z,2.40
2023-05-01T07:57:08.645Z,2.70
2023-05-01T08:00:11.269Z,2.63
2023-05-01T08:03:14.280Z,2.70
2023-05-01T08:06:16.418Z,2.57
2023-05-01T08:09:18.408Z,2.77
2023-05-01T08:12:20.241Z,2.80
2023-05-01T08:15:22.282Z,2.80
2023-05-01T08:18:24.575Z,2.70
2023-05-01T08:21:26.842Z,2.40
2023-05-01T08:24:28.837Z,2.47
2023-05-01T08:27:30.852Z,2.90
2023-05-01T08:30:32.872Z,2.30
2023-05-01T08:33:35.189Z,2.97
2023-05-01T08:36:37.128Z,3.23
2023-05-01T08:39:39.080Z,2.77
2023-05-01T08:42:40.950Z,2.70
2023-05-01T08:45:45.029Z,2.87
2023-05-01T08:48:47.128Z,3.13
2023-05-01T08:51:52.760Z,3.00
2023-05-01T08:54:56.966Z,2.77
2023-05-01T08:57:59.897Z,2.43
2023-05-01T09:01:03.360Z,2.60
2023-05-01T09:04:07.591Z,2.20
2023-05-01T09:07:10.507Z,2.87
2023-05-01T09:10:21.517Z,2.77
2023-05-01T09:13:23.401Z,2.47
2023-05-01T09:16:25.532Z,2.80
2023-05-01T09:19:27.481Z,2.37
2023-05-01T09:22:31.299Z,2.20
2023-05-01T09:25:33.197Z,2.60
2023-05-01T09:28:42.563Z,2.73
2023-05-01T09:31:44.545Z,2.53
2023-05-01T09:34:48.296Z,2.73
2023-05-01T09:37:50.402Z,2.73
2023-05-01T09:40:54.521Z,2.30
2023-05-01T09:43:57.761Z,2.30
2023-05-01T09:46:59.788Z,2.45
2023-05-01T09:50:01.699Z,3.25
2023-05-01T09:53:06.957Z,2.70
2023-05-01T09:56:08.889Z,2.88
2023-05-01T09:59:21.534Z,2.70
2023-05-01T10:02:32.641Z,3.17
2023-05-01T10:05:47.323Z,2.87
2023-05-01T10:08:50.804Z,2.63
2023-05-01T10:11:58.037Z,2.00
2023-05-01T10:15:05.442Z,2.38
2023-05-01T10:18:13.277Z,2.67
2023-05-01T10:21:17.123Z,2.47
2023-05-01T10:24:19.044Z,3.10
2023-05-01T10:27:23.032Z,2.67
2023-05-01T10:30:26.902Z,3.95
2023-05-01T10:33:28.795Z,3.08
2023-05-01T10:36:44.059Z,2.90
2023-05-01T10:39:46.316Z,1.88
2023-05-01T10:43:13.356Z,3.00
2023-05-01T10:46:19.570Z,2.60
2023-05-01T10:49:22.100Z,2.42
2023-05-01T10:52:23.994Z,2.83
2023-05-01T10:55:36.561Z,2.90
2023-05-01T10:58:40.271Z,2.80
2023-05-01T11:01:48.062Z,2.53
2023-05-01T11:04:51.884Z,2.65
2023-05-01T11:08:34.324Z,2.72
2023-05-01T11:11:36.624Z,2.17
2023-05-01T11:15:05.899Z,2.45
2023-05-01T11:18:08.190Z,2.50
2023-05-01T11:21:10.185Z,2.22
2023-05-01T11:24:12.462Z,2.60
2023-05-01T11:27:14.585Z,2.30
2023-05-01T11:30:17.309Z,2.80
2023-05-01T11:33:23.877Z,2.17
2023-05-01T11:36:30.178Z,2.35
2023-05-01T11:39:32.644Z,2.50
2023-05-01T11:42:34.658Z,1.92
2023-05-01T11:45:37.729Z,2.28
2023-05-01T11:48:40.384Z,2.28
2023-05-01T11:51:42.330Z,2.60
2023-05-01T11:54:48.685Z,1.73
2023-05-01T11:57:53.147Z,2.13
2023-05-01T12:00:54.956Z,2.05
2023-05-01T12:03:58.004Z,2.22
2023-05-01T12:07:00.115Z,2.10
2023-05-01T12:10:02.361Z,2.08
2023-05-01T12:13:05.460Z,2.22
2023-05-01T12:16:07.601Z,2.08
2023-05-01T12:19:09.945Z,1.98
2023-05-01T12:22:11.914Z,2.30
2023-05-01T12:25:14.621Z,2.70
2023-05-01T12:28:20.115Z,2.05
2023-05-01T12:31:22.834Z,1.75
2023-05-01T12:34:30.935Z,1.75
2023-05-01T12:37:33.492Z,2.15
2023-05-01T12:40:35.496Z,2.17
2023-05-01T12:43:38.567Z,1.95
2023-05-01T12:46:40.548Z,1.75
2023-05-01T12:49:42.950Z,2.00
2023-05-01T12:52:45.442Z,1.80
2023-05-01T12:55:48.836Z,2.10
2023-05-01T12:58:52.304Z,1.67
2023-05-01T13:02:16.188Z,1.65
2023-05-01T13:05:19.650Z,2.03
2023-05-01T13:08:28.124Z,1.83
2023-05-01T13:11:30.053Z,1.70
2023-05-01T13:14:39.335Z,1.92
2023-05-01T13:17:41.635Z,1.90
2023-05-01T13:20:43.516Z,2.20
2023-05-01T13:24:11.926Z,2.00
2023-05-01T13:27:13.910Z,1.73
2023-05-01T13:30:16.989Z,2.20
2023-05-01T13:33:18.824Z,2.22
2023-05-01T13:36:25.997Z,2.40
2023-05-01T13:39:29.339Z,2.15
2023-05-01T13:42:32.009Z,2.47
2023-05-01T13:45:33.912Z,2.30
2023-05-01T13:48:36.023Z,2.42
2023-05-01T13:51:42.951Z,2.72
2023-05-01T13:54:45.306Z,2.92
2023-05-01T13:57:47.176Z,2.80
2023-05-01T14:00:50.046Z,2.70
2023-05-01T14:03:54.134Z,2.40
2023-05-01T14:06:57.010Z,2.30
2023-05-01T14:10:02.323Z,2.63
2023-05-01T14:13:05.467Z,2.57
2023-05-01T14:16:11.483Z,2.30
2023-05-01T14:19:16.869Z,2.07
2023-05-01T14:22:19.007Z,2.30
2023-05-01T14:25:23.132Z,2.37
2023-05-01T14:28:25.555Z,2.77
2023-05-01T14:31:30.510Z,2.50
2023-05-01T14:34:32.957Z,2.50
2023-05-01T14:37:35.278Z,2.47
2023-05-01T14:40:37.316Z,2.83
2023-05-01T14:43:42.445Z,2.57
2023-05-01T14:46:49.825Z,3.20
2023-05-01T14:49:55.611Z,2.57
2023-05-01T14:53:00.747Z,2.77
2023-05-01T14:56:03.633Z,3.00
2023-05-01T14:59:05.740Z,3.17
2023-05-01T15:02:07.688Z,2.90
2023-05-01T15:05:10.336Z,2.80
2023-05-01T15:08:12.231Z,3.10
2023-05-01T15:11:14.566Z,3.50
2023-05-01T15:14:16.945Z,3.43
2023-05-01T15:17:18.897Z,3.20
2023-05-01T15:20:22.054Z,3.10
2023-05-01T15:23:27.852Z,3.47
2023-05-01T15:26:29.687Z,3.37
2023-05-01T15:29:31.968Z,2.97
2023-05-01T15:32:33.944Z,3.03
2023-05-01T15:35:36.320Z,3.43
2023-05-01T15:38:38.192Z,3.30
2023-05-01T15:41:40.215Z,3.70
2023-05-01T15:44:42.624Z,3.30
2023-05-01T15:47:44.909Z,3.80
2023-05-01T15:50:48.956Z,3.30
2023-05-01T15:53:52.030Z,3.97
2023-05-01T15:56:53.921Z,3.70
2023-05-01T15:59:56.686Z,3.37
2023-05-01T16:03:01.535Z,3.60
2023-05-01T16:06:04.185Z,3.57
2023-05-01T16:09:06.142Z,3.23
2023-05-01T16:12:08.753Z,3.73
2023-05-01T16:15:12.226Z,3.77
2023-05-01T16:18:21.283Z,3.90
2023-05-01T16:21:24.362Z,3.10
2023-05-01T16:24:26.866Z,3.40
2023-05-01T16:27:28.859Z,3.57
2023-05-01T16:30:30.694Z,3.00
2023-05-01T16:33:34.936Z,3.20
2023-05-01T16:36:40.370Z,3.33
2023-05-01T16:39:42.932Z,3.43
2023-05-01T16:42:55.099Z,3.07
2023-05-01T16:45:58.395Z,3.17
2023-05-01T16:49:00.307Z,2.40
2023-05-01T16:52:04.192Z,2.47
2023-05-01T16:55:06.749Z,2.43
2023-05-01T16:58:08.848Z,2.30
2023-05-01T17:01:10.821Z,1.50
2023-05-01T17:04:13.797Z,1.20
2023-05-01T17:07:15.690Z,1.30
2023-05-01T17:10:17.732Z,1.30
2023-05-01T17:13:20.068Z,1.40
2023-05-01T17:16:22.552Z,1.20
2023-05-01T17:19:25.674Z,1.13
2023-05-01T17:22:29.059Z,1.70
2023-05-01T17:25:31.310Z,1.57
2023-05-01T17:28:33.145Z,1.27
2023-05-01T17:31:36.879Z,1.47
2023-05-01T17:34:38.754Z,1.57
2023-05-01T17:37:40.995Z,1.90
2023-05-01T17:40:42.893Z,1.93
2023-05-01T17:43:45.942Z,1.70
2023-05-01T17:46:48.325Z,3.27
2023-05-01T17:49:51.687Z,2.20
2023-05-01T17:52:53.563Z,3.03
2023-05-01T17:55:55.526Z,2.47
2023-05-01T17:58:59.438Z,2.63
2023-05-01T18:02:01.641Z,2.30
2023-05-01T18:05:04.655Z,2.03
2023-05-01T18:08:06.559Z,2.30
2023-05-01T18:11:08.442Z,2.60
2023-05-01T18:14:10.443Z,2.70
2023-05-01T18:17:12.448Z,2.60
2023-05-01T18:20:14.466Z,2.10
2023-05-01T18:23:18.973Z,2.80
2023-05-01T18:26:21.366Z,2.67
2023-05-01T18:29:23.335Z,2.50
2023-05-01T18:32:35.846Z,2.40
2023-05-01T18:35:47.128Z,1.80
2023-05-01T18:38:50.178Z,2.23
2023-05-01T18:41:54.052Z,2.40
2023-05-01T18:44:57.077Z,2.17
2023-05-01T18:48:00.835Z,2.30
2023-05-01T18:51:08.619Z,2.37
2023-05-01T18:54:11.119Z,2.17
2023-05-01T18:57:13.013Z,2.83
2023-05-01T19:00:17.744Z,2.80
2023-05-01T19:03:20.121Z,2.70
2023-05-01T19:06:22.097Z,2.80
2023-05-01T19:09:24.496Z,3.37
2023-05-01T19:12:26.742Z,3.33
2023-05-01T19:15:28.593Z,3.33
2023-05-01T19:18:33.552Z,3.10
2023-05-01T19:21:36.036Z,3.50
2023-05-01T19:24:38.023Z,3.40
2023-05-01T19:27:39.897Z,3.40
2023-05-01T19:30:42.093Z,3.10
2023-05-01T19:33:43.961Z,3.77
2023-05-01T19:36:45.901Z,3.87
2023-05-01T19:39:50.900Z,3.53
2023-05-01T19:42:54.878Z,3.50
2023-05-01T19:45:56.795Z,4.20
2023-05-01T19:48:58.716Z,3.17
2023-05-01T19:52:00.724Z,3.80
2023-05-01T19:55:05.867Z,3.40
2023-05-01T19:58:07.678Z,3.53
2023-05-01T20:01:11.997Z,3.40
2023-05-01T20:04:14.281Z,3.03
2023-05-01T20:07:18.309Z,3.23
2023-05-01T20:10:20.696Z,3.57
2023-05-01T20:13:22.853Z,3.27
2023-05-01T20:16:25.430Z,3.50
2023-05-01T20:19:28.369Z,3.77
2023-05-01T20:22:30.355Z,3.50
2023-05-01T20:25:32.554Z,3.53
2023-05-01T20:28:34.616Z,3.83
2023-05-01T20:31:36.816Z,4.13
2023-05-01T20:34:39.049Z,3.77
2023-05-01T20:37:41.508Z,3.87
2023-05-01T20:40:43.976Z,3.37
2023-05-01T20:43:46.675Z,3.23
2023-05-01T20:46:49.448Z,3.03
2023-05-01T20:49:51.360Z,3.60
2023-05-01T20:52:54.491Z,3.43
2023-05-01T20:55:56.365Z,3.80
2023-05-01T20:59:00.585Z,3.43
2023-05-01T21:02:05.788Z,3.90
2023-05-01T21:05:11.817Z,3.93
2023-05-01T21:08:13.892Z,3.77
2023-05-01T21:11:16.162Z,4.23
2023-05-01T21:14:18.027Z,3.57
2023-05-01T21:17:20.236Z,4.13
2023-05-01T21:20:30.580Z,4.23
2023-05-01T21:23:32.613Z,3.57
2023-05-01T21:26:34.591Z,3.33
2023-05-01T21:29:36.581Z,3.20
2023-05-01T21:32:42.169Z,3.40
2023-05-01T21:35:46.712Z,3.67
2023-05-01T21:38:48.605Z,3.50
2023-05-01T21:41:51.273Z,3.03
2023-05-01T21:44:53.197Z,2.97
2023-05-01T21:47:55.150Z,3.17
2023-05-01T21:50:57.765Z,3.27
2023-05-01T21:54:01.604Z,2.97
2023-05-01T21:57:08.065Z,3.20
2023-05-01T22:00:10.568Z,3.10
2023-05-01T22:03:12.609Z,2.70
2023-05-01T22:06:14.741Z,3.10
2023-05-01T22:09:16.718Z,2.60
2023-05-01T22:12:19.356Z,2.63
2023-05-01T22:15:22.592Z,2.60
2023-05-01T22:18:24.507Z,2.23
2023-05-01T22:21:26.918Z,2.60
2023-05-01T22:24:28.736Z,2.77
2023-05-01T22:27:31.672Z,2.50
2023-05-01T22:30:34.962Z,2.87
2023-05-01T22:33:37.875Z,2.60
2023-05-01T22:36:40.209Z,3.03
2023-05-01T22:39:42.830Z,2.90
2023-05-01T22:42:44.957Z,2.63
2023-05-01T22:45:46.940Z,2.80
2023-05-01T22:48:48.828Z,2.70
2023-05-01T22:51:51.383Z,2.67
2023-05-01T22:54:53.353Z,2.33
2023-05-01T22:57:55.295Z,2.70
2023-05-01T23:00:57.177Z,3.23
2023-05-01T23:03:59.305Z,3.13
2023-05-01T23:07:01.508Z,2.90
2023-05-01T23:10:03.413Z,3.13
2023-05-01T23:13:05.328Z,2.67
2023-05-01T23:16:08.011Z,2.80
2023-05-01T23:19:22.676Z,3.00
2023-05-01T23:22:24.710Z,2.77
2023-05-01T23:25:26.810Z,2.80
2023-05-01T23:28:29.377Z,2.63
2023-05-01T23:31:31.258Z,3.13
2023-05-01T23:34:33.516Z,2.90
2023-05-01T23:37:35.683Z,2.80
2023-05-01T23:40:38.853Z,2.67
2023-05-01T23:43:48.345Z,3.13
2023-05-01T23:46:50.302Z,3.10
2023-05-01T23:49:52.345Z,3.07
2023-05-01T23:52:54.391Z,2.90
2023-05-01T23:55:56.912Z,2.80
2023-05-01T23:58:59.338Z,3.00
